Time;durP1;ratioP1;P1;durP2;ratioP2;P2;SDS_P1;SDS_P2;PMS_P1;PMS_P2;Temp;Humidity;BMP_temperature;BMP_pressure;BME280_temperature;BME280_humidity;BME280_pressure;Samples;Min_cycle;Max_cycle;Signal;HPM_P1;HPM_P2
2022/01/22 00:00:43;;;;;;;32.15;22.48;;;4.40;99.90;;;;;;5025829;28;20974;-83
2022/01/22 00:03:08;;;;;;;31.10;23.00;;;4.40;99.90;;;;;;5027425;28;20386;-83
2022/01/22 00:05:34;;;;;;;34.43;23.13;;;4.40;99.90;;;;;;5028256;28;20476;-83
2022/01/22 00:08:00;;;;;;;34.72;23.27;;;4.40;99.90;;;;;;5026026;28;20536;-82
2022/01/22 00:10:26;;;;;;;31.40;22.03;;;4.40;99.90;;;;;;5026027;28;20836;-83
2022/01/22 00:15:29;;;;;;;33.53;22.60;;;4.40;99.90;;;;;;5027218;28;20405;-83
2022/01/22 00:17:55;;;;;;;35.28;23.35;;;4.40;99.90;;;;;;5026037;28;20463;-83
2022/01/22 00:20:24;;;;;;;30.23;21.60;;;4.40;99.90;;;;;;5025557;28;20478;-83
2022/01/22 00:22:50;;;;;;;30.75;21.45;;;4.50;99.90;;;;;;5027439;28;20394;-82
2022/01/22 00:25:17;;;;;;;31.83;21.30;;;4.50;99.90;;;;;;5024686;28;20447;-84
2022/01/22 00:27:45;;;;;;;36.47;22.20;;;4.50;99.90;;;;;;5005288;28;20414;-83
2022/01/22 00:30:15;;;;;;;32.42;21.10;;;4.50;99.90;;;;;;5026282;28;20421;-84
2022/01/22 00:32:41;;;;;;;33.55;21.85;;;4.50;99.90;;;;;;5027233;28;20752;-83
2022/01/22 00:35:08;;;;;;;31.98;21.63;;;4.50;99.90;;;;;;5025971;28;20398;-83
2022/01/22 00:37:35;;;;;;;32.22;21.85;;;4.50;99.90;;;;;;5028898;27;20416;-83
2022/01/22 00:40:03;;;;;;;30.65;21.83;;;4.50;99.90;;;;;;5015933;28;20397;-83
2022/01/22 00:42:31;;;;;;;32.13;21.13;;;4.50;99.90;;;;;;5025474;28;20412;-84
2022/01/22 00:44:57;;;;;;;34.03;20.83;;;4.50;99.90;;;;;;5026831;28;20883;-84
2022/01/22 00:47:23;;;;;;;31.88;21.48;;;4.50;99.90;;;;;;5026349;28;20405;-84
2022/01/22 00:49:50;;;;;;;29.00;20.38;;;4.50;99.90;;;;;;5031877;28;20434;-83
2022/01/22 00:52:15;;;;;;;29.77;19.77;;;4.40;99.90;;;;;;5023526;28;20408;-84
2022/01/22 00:54:41;;;;;;;27.98;18.58;;;4.50;99.90;;;;;;5025682;28;20401;-84
2022/01/22 00:57:07;;;;;;;27.73;18.17;;;5.00;99.90;;;;;;5026507;28;20397;-84
2022/01/22 00:59:32;;;;;;;25.57;17.53;;;5.00;99.90;;;;;;5026795;28;20458;-83
2022/01/22 01:01:58;;;;;;;25.83;17.37;;;4.60;99.90;;;;;;5024229;28;20400;-84
2022/01/22 01:04:24;;;;;;;31.07;18.37;;;4.60;99.90;;;;;;5025591;28;20394;-83
2022/01/22 01:06:50;;;;;;;27.80;18.13;;;4.60;99.90;;;;;;5024587;28;20940;-84
2022/01/22 01:09:17;;;;;;;32.55;20.80;;;4.60;99.90;;;;;;5027213;28;20381;-85
2022/01/22 01:11:50;;;;;;;29.02;19.80;;;4.60;99.90;;;;;;5026246;28;20954;-83
2022/01/22 01:14:27;;;;;;;29.15;19.75;;;4.60;99.90;;;;;;5025326;28;20824;-84
2022/01/22 01:35:46;;;;;;;24.57;16.70;;;4.70;99.90;;;;;;5026848;28;20386;-84
2022/01/22 01:38:12;;;;;;;22.07;15.43;;;4.70;99.90;;;;;;5024182;28;20405;-84
2022/01/22 01:40:41;;;;;;;26.02;16.13;;;4.70;99.90;;;;;;5024967;28;20477;-83
2022/01/22 01:43:15;;;;;;;25.45;16.98;;;4.70;99.90;;;;;;5025618;28;20438;-84
2022/01/22 01:45:40;;;;;;;24.08;16.35;;;4.60;99.90;;;;;;5023545;28;20477;-83
2022/01/22 01:48:15;;;;;;;25.63;17.33;;;4.70;99.90;;;;;;5025479;28;20414;-83
2022/01/22 01:50:43;;;;;;;22.37;15.83;;;4.60;99.90;;;;;;5024913;28;20401;-84
2022/01/22 01:53:15;;;;;;;19.75;14.73;;;4.60;99.90;;;;;;5024286;28;20565;-84
2022/01/22 01:58:17;;;;;;;21.50;15.32;;;4.50;99.90;;;;;;5025176;28;20389;-84
2022/01/22 02:00:43;;;;;;;20.13;14.70;;;4.60;99.90;;;;;;5024602;28;20393;-84
2022/01/22 02:03:11;;;;;;;19.65;14.02;;;4.50;99.90;;;;;;5023907;28;20424;-84
2022/01/22 02:05:38;;;;;;;20.17;14.55;;;4.60;99.90;;;;;;5023580;28;20899;-83
2022/01/22 02:08:05;;;;;;;18.42;13.90;;;4.60;99.90;;;;;;5022810;28;20486;-84
2022/01/22 02:10:35;;;;;;;18.10;13.20;;;4.60;99.90;;;;;;5024984;28;20377;-83
2022/01/22 02:24:01;;;;;;;19.30;13.47;;;4.20;99.90;;;;;;5028709;28;20528;-85
2022/01/22 02:26:28;;;;;;;20.67;14.02;;;4.20;99.90;;;;;;5028691;28;20428;-84
2022/01/22 02:28:55;;;;;;;18.98;14.00;;;4.10;99.90;;;;;;5029008;28;20393;-84
2022/01/22 02:31:39;;;;;;;18.30;13.20;;;4.20;99.90;;;;;;5028591;28;21024;-84
2022/01/22 02:36:40;;;;;;;18.43;13.27;;;3.90;99.90;;;;;;5028713;28;20644;-84
2022/01/22 02:39:15;;;;;;;17.77;12.27;;;3.90;99.90;;;;;;5026565;28;20409;-84
2022/01/22 02:41:47;;;;;;;18.65;13.30;;;3.80;99.90;;;;;;5013312;28;21181;-85
2022/01/22 02:44:21;;;;;;;18.77;13.00;;;3.80;99.90;;;;;;5029969;28;20938;-83
2022/01/22 02:46:50;;;;;;;19.23;12.75;;;3.80;99.90;;;;;;5030831;28;20413;-85
2022/01/22 02:49:15;;;;;;;19.08;12.30;;;3.90;99.90;;;;;;5027146;28;20397;-84
2022/01/22 02:51:41;;;;;;;16.13;12.18;;;3.80;99.90;;;;;;5028543;28;20385;-84
2022/01/22 02:54:07;;;;;;;16.47;11.37;;;3.90;99.90;;;;;;5027672;28;20401;-83
2022/01/22 02:56:32;;;;;;;16.53;11.77;;;3.90;99.90;;;;;;5027790;28;20385;-84
2022/01/22 02:58:59;;;;;;;14.83;11.13;;;3.80;99.90;;;;;;5026459;28;20870;-84
2022/01/22 03:01:25;;;;;;;15.27;11.23;;;3.90;99.90;;;;;;5026605;28;20879;-84
2022/01/22 03:03:51;;;;;;;16.70;11.07;;;3.90;99.90;;;;;;5028545;28;20386;-85
2022/01/22 03:06:17;;;;;;;16.73;11.73;;;3.90;99.90;;;;;;5006836;28;20391;-84
2022/01/22 03:08:45;;;;;;;14.77;10.65;;;3.90;99.90;;;;;;5026505;28;20420;-84
2022/01/22 03:11:24;;;;;;;15.02;10.85;;;4.00;99.90;;;;;;5027768;28;20397;-85
2022/01/22 03:16:48;;;;;;;15.63;10.85;;;4.00;99.90;;;;;;5025566;28;20394;-84
2022/01/22 03:19:30;;;;;;;13.82;10.50;;;4.00;99.90;;;;;;5025253;28;20390;-84
2022/01/22 03:22:12;;;;;;;13.20;9.45;;;4.10;99.90;;;;;;5026359;28;20401;-83
2022/01/22 03:27:25;;;;;;;13.38;9.90;;;4.00;99.90;;;;;;5027378;28;20906;-83
2022/01/22 03:29:51;;;;;;;14.02;10.20;;;3.90;99.90;;;;;;5026201;28;20401;-82
2022/01/22 03:32:17;;;;;;;13.40;10.25;;;3.90;99.90;;;;;;5026447;28;20421;-83
2022/01/22 03:34:55;;;;;;;13.32;9.40;;;3.90;99.90;;;;;;5026482;28;20768;-84
2022/01/22 03:37:21;;;;;;;13.25;9.57;;;3.80;99.90;;;;;;5025679;28;20410;-84
2022/01/22 03:39:47;;;;;;;13.57;9.63;;;3.70;99.90;;;;;;5025642;28;20979;-84
2022/01/22 03:42:13;;;;;;;15.57;10.70;;;3.70;99.90;;;;;;5026516;28;20606;-83
2022/01/22 03:44:39;;;;;;;14.30;10.10;;;3.60;99.90;;;;;;5026145;28;20425;-83
2022/01/22 03:47:05;;;;;;;13.60;9.50;;;3.60;99.90;;;;;;5026428;28;20902;-84
2022/01/22 03:49:31;;;;;;;14.07;9.07;;;3.60;99.90;;;;;;5026353;28;20416;-84
2022/01/22 03:51:57;;;;;;;12.75;9.18;;;3.50;99.90;;;;;;5027773;28;20373;-83
2022/01/22 03:54:23;;;;;;;13.18;9.40;;;3.40;99.90;;;;;;5007622;28;20470;-83
2022/01/22 03:56:49;;;;;;;15.32;9.68;;;3.50;99.90;;;;;;5012820;28;20386;-84
2022/01/22 03:59:15;;;;;;;13.48;9.65;;;3.40;99.90;;;;;;5025501;28;20876;-84
2022/01/22 04:04:18;;;;;;;14.50;10.40;;;3.40;99.90;;;;;;5017654;28;20450;-82
2022/01/22 04:09:13;;;;;;;17.42;10.57;;;3.40;99.90;;;;;;5026425;28;20790;-84
2022/01/22 04:11:42;;;;;;;14.07;10.00;;;3.30;99.90;;;;;;5026558;28;20390;-84
2022/01/22 04:14:25;;;;;;;16.17;10.80;;;3.20;99.90;;;;;;5025536;28;20385;-84
2022/01/22 04:17:07;;;;;;;16.42;10.50;;;3.30;99.90;;;;;;5025433;28;20402;-84
2022/01/22 04:25:03;;;;;;;16.77;11.48;;;3.20;99.90;;;;;;5026862;28;21079;-84
2022/01/22 04:27:28;;;;;;;16.40;11.80;;;3.10;99.90;;;;;;5024800;28;20753;-84
2022/01/22 04:29:59;;;;;;;17.25;11.52;;;3.10;99.90;;;;;;5025331;28;20437;-83
2022/01/22 04:32:31;;;;;;;19.23;11.63;;;3.10;99.90;;;;;;5024823;28;20390;-84
2022/01/22 04:34:57;;;;;;;19.73;12.20;;;3.00;99.90;;;;;;5025552;28;20763;-84
2022/01/22 04:37:24;;;;;;;17.77;11.95;;;3.10;99.90;;;;;;5028184;28;20445;-84
2022/01/22 04:39:50;;;;;;;17.30;12.32;;;3.00;99.90;;;;;;5026946;28;20403;-83
2022/01/22 04:42:17;;;;;;;19.25;12.70;;;3.10;99.90;;;;;;5026816;28;20385;-83
2022/01/22 04:44:56;;;;;;;17.23;12.60;;;3.10;99.90;;;;;;5025225;28;20425;-83
2022/01/22 04:47:44;;;;;;;17.95;12.35;;;3.10;99.90;;;;;;5024719;28;20817;-83
2022/01/22 04:55:27;;;;;;;19.75;13.85;;;2.90;99.90;;;;;;5026480;28;20397;-83
2022/01/22 04:57:55;;;;;;;20.73;13.60;;;2.90;99.90;;;;;;5026030;27;20859;-83
2022/01/22 05:00:20;;;;;;;21.98;14.15;;;2.90;99.90;;;;;;5026606;28;20390;-83
2022/01/22 05:02:46;;;;;;;23.23;14.30;;;2.90;99.90;;;;;;5026205;28;20400;-84
2022/01/22 05:05:12;;;;;;;18.10;13.10;;;2.80;99.90;;;;;;5024230;28;20442;-84
2022/01/22 05:07:37;;;;;;;22.10;14.35;;;2.80;99.90;;;;;;5024337;28;20509;-84
2022/01/22 05:10:04;;;;;;;22.55;13.93;;;2.80;99.90;;;;;;5024202;28;20405;-83
2022/01/22 05:12:30;;;;;;;21.75;13.73;;;2.70;99.90;;;;;;5025545;28;20386;-83
2022/01/22 05:14:55;;;;;;;20.88;13.80;;;2.70;99.90;;;;;;5024782;28;20417;-83
2022/01/22 05:17:21;;;;;;;20.60;13.93;;;2.80;99.90;;;;;;5024370;28;20509;-84
2022/01/22 05:24:48;;;;;;;20.13;13.18;;;3.10;99.90;;;;;;5025560;28;20806;-84
2022/01/22 05:38:07;;;;;;;21.55;14.20;;;3.40;99.90;;;;;;5025806;28;20400;-83
2022/01/22 05:40:33;;;;;;;18.80;14.55;;;3.30;99.90;;;;;;5024183;28;20414;-83
2022/01/22 05:42:59;;;;;;;22.20;14.00;;;3.30;99.90;;;;;;5024188;28;20508;-83
2022/01/22 05:45:25;;;;;;;21.47;14.57;;;3.30;99.90;;;;;;5025848;28;20887;-83
2022/01/22 05:47:50;;;;;;;19.13;14.20;;;3.30;99.90;;;;;;5026766;28;20406;-84
2022/01/22 05:50:33;;;;;;;19.53;13.60;;;3.20;99.90;;;;;;5028820;28;20481;-84
2022/01/22 05:53:04;;;;;;;22.70;14.85;;;3.10;99.90;;;;;;5027476;28;20459;-83
2022/01/22 05:59:35;;;;;;;21.45;14.50;;;3.00;99.90;;;;;;5027362;28;20879;-84
2022/01/22 06:00:59;;;;;;;22.05;14.55;;;2.80;99.90;;;;;;5029663;28;20396;-84
2022/01/22 06:03:24;;;;;;;25.23;14.33;;;2.80;99.90;;;;;;5028305;28;20385;-84
2022/01/22 06:05:50;;;;;;;23.03;14.83;;;2.80;99.90;;;;;;5027189;28;20393;-84
2022/01/22 06:08:17;;;;;;;22.58;14.27;;;2.70;99.90;;;;;;5027676;28;20930;-83
2022/01/22 06:10:46;;;;;;;21.65;13.48;;;2.80;99.90;;;;;;5027493;28;20473;-83
2022/01/22 06:13:15;;;;;;;21.83;14.30;;;2.70;99.90;;;;;;5027180;28;20396;-83
2022/01/22 06:15:41;;;;;;;21.35;14.48;;;2.80;99.90;;;;;;5028755;28;20390;-85
2022/01/22 06:18:07;;;;;;;22.45;14.25;;;2.80;99.90;;;;;;5027372;28;20392;-84
2022/01/22 06:20:33;;;;;;;23.33;14.63;;;2.60;99.90;;;;;;5027424;28;20879;-84
2022/01/22 06:22:59;;;;;;;19.42;13.55;;;2.60;99.90;;;;;;5027316;28;20392;-83
2022/01/22 06:25:25;;;;;;;20.30;13.50;;;2.70;99.90;;;;;;5026812;28;20405;-83
2022/01/22 06:27:51;;;;;;;20.30;13.73;;;2.70;99.90;;;;;;5028367;28;20879;-83
2022/01/22 06:30:16;;;;;;;18.40;12.27;;;2.50;99.90;;;;;;5029082;28;20397;-84
2022/01/22 06:32:42;;;;;;;21.50;13.40;;;2.50;99.90;;;;;;5029266;28;21001;-84
2022/01/22 06:35:08;;;;;;;21.55;12.88;;;2.50;99.90;;;;;;5027263;28;20469;-83
2022/01/22 06:37:34;;;;;;;20.02;13.25;;;2.50;99.90;;;;;;5027703;28;20469;-83
2022/01/22 06:42:32;;;;;;;21.58;13.63;;;2.30;99.90;;;;;;5028857;28;20382;-82
2022/01/22 06:44:59;;;;;;;22.33;13.57;;;2.40;99.90;;;;;;5027041;28;20467;-83
2022/01/22 06:47:28;;;;;;;19.25;13.23;;;2.40;99.90;;;;;;5026763;28;20427;-83
2022/01/22 06:49:54;;;;;;;19.83;12.68;;;2.40;99.90;;;;;;5026598;28;20389;-83
2022/01/22 06:52:19;;;;;;;21.33;13.55;;;2.40;99.90;;;;;;5027199;28;20392;-83
2022/01/22 06:54:45;;;;;;;17.48;12.55;;;2.40;99.90;;;;;;5027374;28;20430;-83
2022/01/22 06:57:12;;;;;;;19.60;13.40;;;2.40;99.90;;;;;;5025405;28;20410;-83
2022/01/22 06:59:38;;;;;;;20.85;13.80;;;2.40;99.90;;;;;;5026851;28;20401;-84
2022/01/22 07:02:04;;;;;;;20.30;14.18;;;2.40;99.90;;;;;;5026497;28;20390;-83
2022/01/22 07:04:31;;;;;;;20.50;13.55;;;2.40;99.90;;;;;;5025725;28;20397;-84
2022/01/22 07:06:57;;;;;;;19.98;13.55;;;2.50;99.90;;;;;;5027931;28;20974;-83
2022/01/22 07:09:23;;;;;;;21.92;13.95;;;2.40;99.90;;;;;;5026522;28;20888;-84
2022/01/22 07:11:49;;;;;;;16.70;12.27;;;2.40;99.90;;;;;;5026083;28;20406;-83
2022/01/22 07:14:16;;;;;;;19.00;11.85;;;2.70;99.90;;;;;;5026641;28;20900;-84
2022/01/22 07:16:41;;;;;;;18.70;11.85;;;2.70;99.90;;;;;;5026754;28;20378;-83
2022/01/22 07:19:07;;;;;;;18.42;11.68;;;2.70;99.90;;;;;;5025960;28;20914;-83
2022/01/22 07:21:32;;;;;;;14.37;10.97;;;2.80;99.90;;;;;;5026253;28;20404;-83
2022/01/22 07:26:27;;;;;;;20.55;12.25;;;2.80;99.90;;;;;;5027435;28;20437;-84
2022/01/22 07:28:52;;;;;;;17.92;11.18;;;2.80;99.90;;;;;;5025893;28;20418;-84
2022/01/22 07:31:20;;;;;;;15.18;11.57;;;2.80;99.90;;;;;;5027436;28;20382;-84
2022/01/22 07:33:47;;;;;;;18.70;12.50;;;2.70;99.90;;;;;;5026140;28;20771;-84
2022/01/22 07:36:12;;;;;;;17.25;12.05;;;2.70;99.90;;;;;;5026130;28;20385;-84
2022/01/22 07:38:39;;;;;;;18.60;12.37;;;2.70;99.90;;;;;;5026205;28;20373;-83
2022/01/22 07:41:07;;;;;;;17.73;12.40;;;2.80;99.90;;;;;;5025199;28;20469;-83
2022/01/22 07:43:32;;;;;;;21.27;12.77;;;2.70;99.90;;;;;;5025769;28;20447;-84
2022/01/22 07:46:00;;;;;;;23.02;13.50;;;2.70;99.90;;;;;;5026071;28;20381;-84
2022/01/22 07:48:26;;;;;;;22.35;13.45;;;2.70;99.90;;;;;;5026041;28;20405;-83
2022/01/22 07:50:51;;;;;;;22.73;14.37;;;2.70;99.90;;;;;;5026045;28;20392;-82
2022/01/22 07:53:17;;;;;;;22.00;16.37;;;2.80;99.90;;;;;;5027185;28;20405;-84
2022/01/22 07:55:42;;;;;;;24.43;16.00;;;2.80;99.90;;;;;;5024988;28;20887;-84
2022/01/22 07:58:08;;;;;;;25.20;18.53;;;2.80;99.90;;;;;;5026636;28;20390;-84
2022/01/22 08:00:35;;;;;;;28.30;19.13;;;2.70;99.90;;;;;;5026191;28;20374;-84
2022/01/22 08:03:01;;;;;;;23.15;15.38;;;2.80;99.90;;;;;;5025556;28;20450;-84
2022/01/22 08:05:27;;;;;;;24.27;14.87;;;2.80;99.90;;;;;;5026055;28;20413;-84
2022/01/22 08:07:53;;;;;;;20.70;13.80;;;2.90;99.90;;;;;;5025709;28;20410;-84
2022/01/22 08:10:18;;;;;;;18.83;13.70;;;3.10;99.90;;;;;;5025248;28;20389;-84
2022/01/22 08:12:48;;;;;;;21.13;13.82;;;3.20;99.90;;;;;;5024341;28;20401;-84
2022/01/22 08:15:15;;;;;;;23.15;14.65;;;3.20;99.90;;;;;;5025599;28;20755;-83
2022/01/22 08:17:41;;;;;;;21.50;14.63;;;3.30;99.90;;;;;;5025429;28;20412;-84
2022/01/22 08:20:07;;;;;;;19.50;13.35;;;3.30;99.90;;;;;;5026572;28;20385;-84
2022/01/22 08:22:33;;;;;;;21.15;14.25;;;3.40;99.90;;;;;;5026680;28;20493;-84
2022/01/22 08:25:01;;;;;;;22.00;14.13;;;3.40;99.90;;;;;;5027248;28;20801;-84
2022/01/22 08:27:36;;;;;;;21.20;14.23;;;3.30;99.90;;;;;;5025039;28;20509;-84
2022/01/22 08:30:02;;;;;;;18.67;13.00;;;3.30;99.90;;;;;;5024352;28;20397;-83
2022/01/22 08:37:54;;;;;;;16.08;11.65;;;3.60;99.90;;;;;;5027233;28;20535;-84
2022/01/22 08:40:19;;;;;;;15.30;11.73;;;3.50;99.90;;;;;;5025532;28;20437;-85
2022/01/22 08:42:45;;;;;;;18.60;11.77;;;3.50;99.90;;;;;;5027138;28;20503;-83
2022/01/22 08:45:12;;;;;;;17.97;11.43;;;3.50;99.90;;;;;;5025044;28;20912;-84
2022/01/22 08:47:39;;;;;;;17.00;11.68;;;3.60;99.90;;;;;;5026491;28;20409;-83
2022/01/22 08:50:05;;;;;;;18.88;11.43;;;3.50;99.90;;;;;;5024838;28;20385;-84
2022/01/22 08:52:35;;;;;;;17.63;10.93;;;3.40;99.90;;;;;;5025280;28;20390;-84
2022/01/22 08:55:02;;;;;;;16.05;10.95;;;3.40;99.90;;;;;;5026904;28;20385;-83
2022/01/22 08:57:28;;;;;;;13.25;9.95;;;3.40;99.90;;;;;;5026237;28;20386;-84
2022/01/22 08:59:53;;;;;;;17.65;10.98;;;3.30;99.90;;;;;;5025175;28;20381;-84
2022/01/22 09:02:19;;;;;;;16.33;11.27;;;3.30;99.90;;;;;;5008788;28;20389;-83
2022/01/22 09:04:45;;;;;;;18.30;11.40;;;3.30;99.90;;;;;;5025250;28;20402;-83
2022/01/22 09:07:11;;;;;;;15.68;10.43;;;3.20;99.90;;;;;;5024607;28;20405;-84
2022/01/22 09:09:37;;;;;;;17.98;10.65;;;3.30;99.90;;;;;;5025253;28;20388;-83
2022/01/22 09:12:05;;;;;;;16.83;10.65;;;3.40;99.90;;;;;;5026166;28;20386;-84
2022/01/22 09:14:32;;;;;;;15.38;9.57;;;3.50;99.90;;;;;;5024663;28;20381;-83
2022/01/22 09:16:59;;;;;;;13.95;9.60;;;3.50;99.90;;;;;;5026085;28;20417;-84
2022/01/22 09:19:32;;;;;;;15.52;10.40;;;3.60;99.90;;;;;;5025587;28;20416;-83
2022/01/22 09:21:59;;;;;;;15.25;9.90;;;3.70;99.90;;;;;;5024150;28;20457;-83
2022/01/22 09:24:25;;;;;;;14.43;10.07;;;3.60;99.90;;;;;;5026647;28;20382;-84
2022/01/22 09:26:51;;;;;;;14.40;10.07;;;3.60;99.90;;;;;;5024301;28;20410;-84
2022/01/22 09:29:16;;;;;;;14.85;10.50;;;3.80;99.90;;;;;;5025687;28;21225;-84
2022/01/22 09:31:44;;;;;;;15.05;9.35;;;3.80;99.90;;;;;;5026340;28;20818;-84
2022/01/22 09:34:10;;;;;;;15.10;9.35;;;3.90;99.90;;;;;;5024220;28;20466;-83
2022/01/22 09:36:36;;;;;;;11.98;9.18;;;3.90;99.90;;;;;;5026069;28;20859;-84
2022/01/22 09:39:03;;;;;;;11.93;8.97;;;3.90;99.90;;;;;;5025704;27;20431;-83
2022/01/22 09:41:30;;;;;;;12.83;8.30;;;4.00;99.90;;;;;;5024768;28;20457;-84
2022/01/22 09:43:56;;;;;;;15.73;8.80;;;3.90;99.90;;;;;;5026284;28;20409;-84
2022/01/22 09:46:24;;;;;;;15.68;8.70;;;3.80;99.90;;;;;;5019104;28;20934;-84
2022/01/22 09:48:51;;;;;;;15.85;9.02;;;4.10;99.90;;;;;;5018063;28;20386;-84
2022/01/22 09:51:17;;;;;;;14.10;8.40;;;4.10;99.90;;;;;;5010620;28;20459;-83
2022/01/22 09:53:43;;;;;;;14.73;8.15;;;4.30;99.90;;;;;;5005304;28;20387;-84
2022/01/22 09:56:10;;;;;;;11.52;7.35;;;4.50;99.90;;;;;;5024546;28;20739;-84
2022/01/22 09:58:36;;;;;;;11.88;6.75;;;4.70;99.90;;;;;;5023311;28;20664;-84
2022/01/22 10:01:23;;;;;;;11.20;6.00;;;5.00;99.90;;;;;;5019909;28;20460;-84
2022/01/22 10:03:50;;;;;;;8.68;5.93;;;5.10;99.90;;;;;;5022814;28;20394;-83
2022/01/22 10:06:21;;;;;;;10.67;5.90;;;4.80;99.90;;;;;;5019749;28;20446;-83
2022/01/22 10:08:47;;;;;;;10.93;5.83;;;4.70;99.90;;;;;;5022808;28;20405;-85
2022/01/22 10:11:26;;;;;;;11.10;6.38;;;4.60;99.90;;;;;;5023100;28;20917;-83
2022/01/22 10:13:59;;;;;;;13.73;5.75;;;4.70;99.90;;;;;;5022063;28;20409;-83
2022/01/22 10:16:27;;;;;;;10.52;5.90;;;4.70;99.90;;;;;;5021645;28;20433;-83
2022/01/22 10:19:16;;;;;;;10.32;4.88;;;4.50;99.90;;;;;;5023981;28;20432;-84
2022/01/22 10:22:01;;;;;;;9.80;5.20;;;4.60;99.90;;;;;;5022639;28;20760;-84
2022/01/22 10:24:43;;;;;;;9.48;5.28;;;4.60;99.90;;;;;;5022277;28;20394;-83
2022/01/22 10:27:11;;;;;;;10.63;5.40;;;4.80;99.90;;;;;;5022789;28;21165;-84
2022/01/22 10:29:46;;;;;;;9.68;5.40;;;4.80;99.90;;;;;;5024512;28;20406;-84
2022/01/22 10:32:18;;;;;;;10.68;5.18;;;5.00;99.90;;;;;;5024574;28;20393;-84
2022/01/22 10:34:43;;;;;;;9.23;5.38;;;5.10;99.90;;;;;;5027411;28;20748;-84
2022/01/22 10:37:09;;;;;;;9.95;5.10;;;5.10;99.90;;;;;;5028265;28;20381;-84
2022/01/22 10:39:35;;;;;;;8.70;5.20;;;5.10;99.90;;;;;;5026826;28;20425;-84
2022/01/22 10:42:19;;;;;;;7.93;5.20;;;5.10;99.90;;;;;;5027254;28;20381;-85
2022/01/22 10:44:48;;;;;;;9.27;5.40;;;5.10;99.90;;;;;;5018794;28;20389;-84
2022/01/22 10:47:22;;;;;;;9.77;5.68;;;5.10;99.90;;;;;;5027020;28;20409;-84
2022/01/22 10:49:48;;;;;;;11.98;6.03;;;5.10;99.90;;;;;;5027225;28;20394;-85
2022/01/22 10:52:14;;;;;;;7.90;5.32;;;5.00;99.90;;;;;;5028533;28;20381;-84
2022/01/22 10:54:40;;;;;;;10.65;5.47;;;5.00;99.90;;;;;;5028924;27;20480;-84
2022/01/22 10:57:08;;;;;;;7.65;4.78;;;5.10;99.90;;;;;;5028526;28;20381;-84
2022/01/22 10:59:35;;;;;;;8.93;5.38;;;5.10;99.90;;;;;;5026741;28;20886;-84
2022/01/22 11:02:03;;;;;;;9.35;5.00;;;5.00;99.90;;;;;;5027629;28;20959;-84
2022/01/22 11:04:35;;;;;;;12.70;5.60;;;5.00;99.90;;;;;;5030102;28;20397;-84
2022/01/22 11:07:07;;;;;;;10.75;5.85;;;4.80;99.90;;;;;;5028215;27;20397;-84
2022/01/22 11:09:34;;;;;;;10.85;5.70;;;4.60;99.90;;;;;;5026019;28;20405;-84
2022/01/22 11:12:02;;;;;;;9.60;5.30;;;4.80;99.90;;;;;;5025740;28;20388;-84
2022/01/22 11:14:30;;;;;;;7.63;4.60;;;5.00;99.90;;;;;;5026340;28;20386;-84
2022/01/22 11:16:57;;;;;;;7.32;4.25;;;5.00;99.90;;;;;;5010309;28;20854;-84
2022/01/22 11:19:35;;;;;;;9.45;4.93;;;5.00;99.90;;;;;;5027805;28;20385;-83
2022/01/22 11:22:05;;;;;;;9.80;5.40;;;5.10;99.90;;;;;;5027186;28;20492;-85
2022/01/22 11:24:35;;;;;;;8.77;4.97;;;5.10;99.90;;;;;;5026813;28;20386;-85
2022/01/22 11:27:03;;;;;;;10.45;6.22;;;5.20;99.90;;;;;;5027984;28;20427;-84
2022/01/22 11:29:36;;;;;;;13.43;6.10;;;5.00;99.90;;;;;;5027756;27;20397;-84
2022/01/22 11:32:05;;;;;;;10.38;6.45;;;4.70;99.90;;;;;;5008062;28;20592;-84
2022/01/22 11:34:34;;;;;;;12.85;7.03;;;4.90;99.90;;;;;;5027470;28;20369;-84
2022/01/22 11:37:19;;;;;;;10.95;6.40;;;5.10;99.90;;;;;;5026530;28;20382;-84
2022/01/22 11:39:45;;;;;;;10.43;5.95;;;5.10;99.90;;;;;;5027168;28;20398;-83
2022/01/22 11:42:11;;;;;;;13.65;6.90;;;5.10;99.90;;;;;;5026761;28;20384;-83
2022/01/22 11:44:50;;;;;;;10.25;5.40;;;5.30;99.90;;;;;;5026086;28;20418;-84
2022/01/22 11:47:20;;;;;;;9.63;5.70;;;5.20;99.90;;;;;;5028089;28;20416;-84
2022/01/22 11:50:09;;;;;;;8.52;5.28;;;5.00;99.90;;;;;;5026939;28;20389;-84
2022/01/22 11:52:40;;;;;;;11.70;5.63;;;5.00;99.90;;;;;;5027319;28;20748;-84
2022/01/22 11:55:11;;;;;;;9.80;5.53;;;5.20;99.90;;;;;;5026680;28;20394;-83
2022/01/22 11:57:37;;;;;;;10.33;5.73;;;5.10;99.90;;;;;;5024352;28;20422;-84
2022/01/22 12:00:17;;;;;;;9.57;5.55;;;5.20;99.90;;;;;;5024945;28;20402;-85
2022/01/22 12:02:43;;;;;;;9.70;4.97;;;5.30;99.90;;;;;;5025051;28;20473;-84
2022/01/22 12:05:09;;;;;;;8.07;4.83;;;5.50;99.90;;;;;;5043018;28;20895;-84
2022/01/22 12:07:37;;;;;;;10.33;5.43;;;5.50;99.90;;;;;;5031963;28;20492;-84
2022/01/22 12:16:11;;;;;;;9.93;5.30;;;5.30;99.90;;;;;;5023368;28;20388;-84
2022/01/22 12:18:43;;;;;;;10.55;5.55;;;5.30;99.90;;;;;;5026095;28;20478;-84
2022/01/22 12:21:32;;;;;;;10.52;5.68;;;5.40;99.90;;;;;;5023197;28;20488;-84
2022/01/22 12:23:59;;;;;;;10.18;7.10;;;5.50;99.90;;;;;;5025983;28;20405;-84
2022/01/22 12:26:46;;;;;;;13.35;8.65;;;5.30;99.90;;;;;;5023398;28;20377;-85
2022/01/22 12:29:36;;;;;;;13.23;8.55;;;5.10;99.90;;;;;;5023101;28;20405;-85
2022/01/22 12:32:18;;;;;;;14.40;10.53;;;5.00;99.90;;;;;;5024201;28;20413;-84
2022/01/22 12:35:07;;;;;;;13.27;8.77;;;4.90;99.90;;;;;;5025651;28;20378;-84
2022/01/22 12:37:38;;;;;;;15.73;9.35;;;4.80;99.90;;;;;;5026449;28;20385;-84
2022/01/22 12:40:06;;;;;;;12.70;8.30;;;4.60;99.90;;;;;;5023817;28;20401;-83
2022/01/22 12:42:59;;;;;;;12.70;8.00;;;4.50;99.90;;;;;;5025660;28;20991;-84
2022/01/22 12:45:26;;;;;;;13.57;8.07;;;4.40;99.90;;;;;;5027335;28;20484;-84
2022/01/22 12:47:54;;;;;;;12.35;7.40;;;4.50;99.90;;;;;;5025167;28;20951;-86
2022/01/22 12:50:32;;;;;;;9.38;7.25;;;4.50;99.90;;;;;;5000926;28;20389;-84
2022/01/22 12:53:04;;;;;;;13.40;7.43;;;4.50;99.90;;;;;;5025286;28;20428;-85
2022/01/22 12:58:27;;;;;;;13.20;6.78;;;4.60;99.90;;;;;;5024023;28;20373;-84
2022/01/22 13:01:14;;;;;;;9.85;6.63;;;4.70;99.90;;;;;;5024254;28;20412;-83
2022/01/22 13:03:43;;;;;;;13.45;7.07;;;4.90;99.90;;;;;;5023262;28;20428;-83
2022/01/22 13:06:09;;;;;;;12.88;7.20;;;5.00;99.90;;;;;;5025414;28;20385;-84
2022/01/22 13:08:35;;;;;;;10.93;6.88;;;5.00;99.90;;;;;;5026548;28;20436;-84
2022/01/22 13:11:02;;;;;;;10.30;6.47;;;5.10;99.90;;;;;;5025341;28;20382;-84
2022/01/22 13:13:29;;;;;;;9.57;5.88;;;5.10;99.90;;;;;;5026039;28;20386;-84
2022/01/22 13:16:07;;;;;;;10.60;5.72;;;5.00;99.90;;;;;;5027007;28;20930;-83
2022/01/22 13:18:58;;;;;;;10.18;6.00;;;5.10;99.90;;;;;;5025789;28;20450;-84
2022/01/22 13:21:29;;;;;;;10.20;5.82;;;5.20;99.90;;;;;;5026156;28;20397;-84
2022/01/22 13:24:05;;;;;;;9.52;5.95;;;5.20;99.90;;;;;;5009317;28;20382;-84
2022/01/22 13:26:43;;;;;;;11.55;5.95;;;5.00;99.90;;;;;;5026098;28;20389;-84
2022/01/22 13:29:30;;;;;;;10.10;6.25;;;4.80;99.90;;;;;;5026058;28;20409;-85
2022/01/22 13:32:24;;;;;;;6.97;4.00;;;4.80;99.90;;;;;;5025536;28;20398;-85
2022/01/22 13:35:03;;;;;;;6.82;4.43;;;4.90;99.90;;;;;;5025758;28;20382;-84
2022/01/22 13:47:40;;;;;;;6.32;4.20;;;4.80;99.90;;;;;;5006411;28;20405;-85
2022/01/22 13:48:09;;;;;;;8.20;4.67;;;4.70;99.90;;;;;;5006044;28;20502;-83
2022/01/22 13:50:37;;;;;;;9.50;5.70;;;4.80;99.90;;;;;;5005740;28;20866;-85
2022/01/22 13:53:03;;;;;;;7.90;5.45;;;4.70;99.90;;;;;;5006895;28;20383;-85
2022/01/22 13:55:30;;;;;;;8.68;4.95;;;4.60;99.90;;;;;;5014409;28;20421;-85
2022/01/22 13:57:57;;;;;;;10.02;5.60;;;4.50;99.90;;;;;;5024908;28;20382;-84
2022/01/22 14:00:24;;;;;;;12.00;6.13;;;4.60;99.90;;;;;;5024775;28;20386;-84
2022/01/22 14:03:07;;;;;;;10.60;5.80;;;4.50;99.90;;;;;;5024914;28;20385;-84
2022/01/22 14:05:33;;;;;;;9.32;5.70;;;4.60;99.90;;;;;;5024987;28;20402;-84
2022/01/22 14:08:10;;;;;;;10.35;5.85;;;4.70;99.90;;;;;;5026395;28;20415;-85
2022/01/22 14:10:40;;;;;;;8.77;5.85;;;4.80;99.90;;;;;;5031460;28;20410;-85
2022/01/22 14:13:11;;;;;;;9.65;6.70;;;4.80;99.90;;;;;;5028247;28;20418;-86
2022/01/22 14:15:45;;;;;;;9.27;5.93;;;4.90;99.90;;;;;;5025260;28;20867;-85
2022/01/22 14:18:22;;;;;;;8.80;6.03;;;5.00;99.90;;;;;;5027696;28;20398;-85
2022/01/22 14:21:07;;;;;;;10.88;6.32;;;5.10;99.90;;;;;;5026963;28;20398;-84
2022/01/22 14:23:35;;;;;;;10.75;6.05;;;5.00;99.90;;;;;;5027430;28;20478;-84
2022/01/22 14:26:23;;;;;;;11.30;6.82;;;5.00;99.90;;;;;;5029803;28;20435;-85
2022/01/22 14:29:07;;;;;;;10.43;7.25;;;5.00;99.90;;;;;;5029197;28;20408;-84
2022/01/22 14:31:32;;;;;;;11.10;7.10;;;5.10;99.90;;;;;;5032095;28;20481;-84
2022/01/22 14:33:59;;;;;;;10.37;6.63;;;5.10;99.90;;;;;;5042485;28;20418;-84
2022/01/22 14:36:28;;;;;;;9.80;6.55;;;5.10;99.90;;;;;;5030147;28;20394;-84
2022/01/22 14:44:39;;;;;;;11.57;7.68;;;5.20;99.90;;;;;;5022443;28;20376;-85